sensor_id;sensor_type;location;lat;lon;timestamp;P1;durP1;ratioP1;P2;durP2;ratioP2
10894;SDS011;5500;49.886;8.074;2023-04-07T00:00:31;15.87;;;11.57;;
10894;SDS011;5500;49.886;8.074;2023-04-07T00:02:59;16.27;;;12.80;;
10894;SDS011;5500;49.886;8.074;2023-04-07T00:05:29;14.50;;;12.40;;
10894;SDS011;5500;49.886;8.074;2023-04-07T00:07:56;14.27;;;11.90;;
10894;SDS011;5500;49.886;8.074;2023-04-07T00:10:24;14.40;;;12.87;;
10894;SDS011;5500;49.886;8.074;2023-04-07T00:12:52;15.57;;;12.53;;
10894;SDS011;5500;49.886;8.074;2023-04-07T00:15:19;13.87;;;12.43;;
10894;SDS011;5500;49.886;8.074;2023-04-07T00:17:47;13.80;;;12.33;;
10894;SDS011;5500;49.886;8.074;2023-04-07T00:20:15;13.63;;;12.03;;
10894;SDS011;5500;49.886;8.074;2023-04-07T00:22:47;15.10;;;13.23;;
10894;SDS011;5500;49.886;8.074;2023-04-07T00:25:16;17.60;;;12.57;;
10894;SDS011;5500;49.886;8.074;2023-04-07T00:27:46;14.33;;;12.87;;
10894;SDS011;5500;49.886;8.074;2023-04-07T00:30:18;14.67;;;12.43;;
10894;SDS011;5500;49.886;8.074;2023-04-07T00:32:46;14.97;;;12.13;;
10894;SDS011;5500;49.886;8.074;2023-04-07T00:35:14;13.93;;;12.53;;
10894;SDS011;5500;49.886;8.074;2023-04-07T00:37:42;14.23;;;12.30;;
10894;SDS011;5500;49.886;8.074;2023-04-07T00:40:12;13.17;;;11.77;;
10894;SDS011;5500;49.886;8.074;2023-04-07T00:42:40;15.33;;;12.50;;
10894;SDS011;5500;49.886;8.074;2023-04-07T00:45:09;13.93;;;12.53;;
10894;SDS011;5500;49.886;8.074;2023-04-07T00:47:38;15.87;;;12.13;;
10894;SDS011;5500;49.886;8.074;2023-04-07T00:50:08;13.77;;;12.10;;
10894;SDS011;5500;49.886;8.074;2023-04-07T00:52:37;13.93;;;12.10;;
10894;SDS011;5500;49.886;8.074;2023-04-07T00:55:05;12.97;;;11.70;;
10894;SDS011;5500;49.886;8.074;2023-04-07T00:57:35;14.60;;;12.87;;
10894;SDS011;5500;49.886;8.074;2023-04-07T01:00:04;13.60;;;12.07;;
10894;SDS011;5500;49.886;8.074;2023-04-07T01:02:35;19.00;;;12.97;;
10894;SDS011;5500;49.886;8.074;2023-04-07T01:05:09;15.33;;;12.27;;
10894;SDS011;5500;49.886;8.074;2023-04-07T01:07:43;14.20;;;12.70;;
10894;SDS011;5500;49.886;8.074;2023-04-07T01:10:20;14.23;;;11.90;;
10894;SDS011;5500;49.886;8.074;2023-04-07T01:12:56;17.53;;;13.27;;
10894;SDS011;5500;49.886;8.074;2023-04-07T01:15:28;14.17;;;12.67;;
10894;SDS011;5500;49.886;8.074;2023-04-07T01:17:58;14.77;;;13.27;;
10894;SDS011;5500;49.886;8.074;2023-04-07T01:20:33;15.10;;;13.43;;
10894;SDS011;5500;49.886;8.074;2023-04-07T01:23:03;17.17;;;13.10;;
10894;SDS011;5500;49.886;8.074;2023-04-07T01:25:36;15.80;;;13.67;;
10894;SDS011;5500;49.886;8.074;2023-04-07T01:31:09;16.00;;;13.77;;
10894;SDS011;5500;49.886;8.074;2023-04-07T01:33:39;15.77;;;13.53;;
10894;SDS011;5500;49.886;8.074;2023-04-07T01:36:11;16.80;;;14.77;;
10894;SDS011;5500;49.886;8.074;2023-04-07T01:38:39;17.47;;;14.37;;
10894;SDS011;5500;49.886;8.074;2023-04-07T01:41:07;14.53;;;12.83;;
10894;SDS011;5500;49.886;8.074;2023-04-07T01:43:36;14.30;;;12.90;;
10894;SDS011;5500;49.886;8.074;2023-04-07T01:46:06;16.30;;;12.97;;
10894;SDS011;5500;49.886;8.074;2023-04-07T01:48:36;15.30;;;13.77;;
10894;SDS011;5500;49.886;8.074;2023-04-07T01:51:04;14.40;;;12.90;;
10894;SDS011;5500;49.886;8.074;2023-04-07T01:53:32;15.07;;;13.47;;
10894;SDS011;5500;49.886;8.074;2023-04-07T01:56:03;14.77;;;13.27;;
10894;SDS011;5500;49.886;8.074;2023-04-07T01:58:31;15.83;;;13.33;;
10894;SDS011;5500;49.886;8.074;2023-04-07T02:00:59;15.30;;;13.70;;
10894;SDS011;5500;49.886;8.074;2023-04-07T02:03:27;16.57;;;14.27;;
10894;SDS011;5500;49.886;8.074;2023-04-07T02:06:01;15.17;;;13.43;;
10894;SDS011;5500;49.886;8.074;2023-04-07T02:08:32;15.83;;;13.60;;
10894;SDS011;5500;49.886;8.074;2023-04-07T02:11:02;15.23;;;13.53;;
10894;SDS011;5500;49.886;8.074;2023-04-07T02:13:33;15.00;;;13.40;;
10894;SDS011;5500;49.886;8.074;2023-04-07T02:16:01;15.07;;;12.73;;
10894;SDS011;5500;49.886;8.074;2023-04-07T02:18:29;15.00;;;13.43;;
10894;SDS011;5500;49.886;8.074;2023-04-07T02:20:59;18.17;;;13.53;;
10894;SDS011;5500;49.886;8.074;2023-04-07T02:23:27;16.63;;;13.50;;
10894;SDS011;5500;49.886;8.074;2023-04-07T02:25:55;13.53;;;12.20;;
10894;SDS011;5500;49.886;8.074;2023-04-07T02:28:23;15.27;;;13.67;;
10894;SDS011;5500;49.886;8.074;2023-04-07T02:30:51;15.37;;;13.77;;
10894;SDS011;5500;49.886;8.074;2023-04-07T02:33:19;14.67;;;13.27;;
10894;SDS011;5500;49.886;8.074;2023-04-07T02:35:46;15.27;;;13.70;;
10894;SDS011;5500;49.886;8.074;2023-04-07T02:38:15;16.13;;;13.77;;
10894;SDS011;5500;49.886;8.074;2023-04-07T02:40:43;15.00;;;12.17;;
10894;SDS011;5500;49.886;8.074;2023-04-07T02:43:10;16.73;;;13.53;;
10894;SDS011;5500;49.886;8.074;2023-04-07T02:45:38;15.63;;;13.97;;
10894;SDS011;5500;49.886;8.074;2023-04-07T02:48:06;16.50;;;13.83;;
10894;SDS011;5500;49.886;8.074;2023-04-07T02:50:33;14.20;;;12.47;;
10894;SDS011;5500;49.886;8.074;2023-04-07T02:53:01;14.27;;;12.77;;
10894;SDS011;5500;49.886;8.074;2023-04-07T02:55:30;15.13;;;13.37;;
10894;SDS011;5500;49.886;8.074;2023-04-07T02:57:57;14.67;;;12.97;;
10894;SDS011;5500;49.886;8.074;2023-04-07T03:00:25;14.17;;;12.70;;
10894;SDS011;5500;49.886;8.074;2023-04-07T03:02:53;16.30;;;12.70;;
10894;SDS011;5500;49.886;8.074;2023-04-07T03:05:21;15.07;;;12.70;;
10894;SDS011;5500;49.886;8.074;2023-04-07T03:07:49;13.97;;;12.33;;
10894;SDS011;5500;49.886;8.074;2023-04-07T03:10:16;15.57;;;13.27;;
10894;SDS011;5500;49.886;8.074;2023-04-07T03:12:45;14.30;;;12.23;;
10894;SDS011;5500;49.886;8.074;2023-04-07T03:15:13;14.57;;;12.80;;
10894;SDS011;5500;49.886;8.074;2023-04-07T03:17:43;14.47;;;13.07;;
10894;SDS011;5500;49.886;8.074;2023-04-07T03:20:11;13.80;;;12.30;;
10894;SDS011;5500;49.886;8.074;2023-04-07T03:22:39;13.87;;;12.47;;
10894;SDS011;5500;49.886;8.074;2023-04-07T03:25:07;14.73;;;13.17;;
10894;SDS011;5500;49.886;8.074;2023-04-07T03:27:35;14.47;;;12.87;;
10894;SDS011;5500;49.886;8.074;2023-04-07T03:30:04;14.10;;;12.27;;
10894;SDS011;5500;49.886;8.074;2023-04-07T03:32:33;15.63;;;12.77;;
10894;SDS011;5500;49.886;8.074;2023-04-07T03:35:00;13.43;;;12.03;;
10894;SDS011;5500;49.886;8.074;2023-04-07T03:37:28;13.80;;;12.30;;
10894;SDS011;5500;49.886;8.074;2023-04-07T03:39:55;14.23;;;12.83;;
10894;SDS011;5500;49.886;8.074;2023-04-07T03:42:23;13.70;;;12.30;;
10894;SDS011;5500;49.886;8.074;2023-04-07T03:44:51;14.70;;;12.50;;
10894;SDS011;5500;49.886;8.074;2023-04-07T03:47:20;14.37;;;12.87;;
10894;SDS011;5500;49.886;8.074;2023-04-07T03:49:48;15.03;;;13.43;;
10894;SDS011;5500;49.886;8.074;2023-04-07T03:52:16;13.60;;;12.20;;
10894;SDS011;5500;49.886;8.074;2023-04-07T03:54:44;13.67;;;12.27;;
10894;SDS011;5500;49.886;8.074;2023-04-07T03:57:11;15.63;;;12.53;;
10894;SDS011;5500;49.886;8.074;2023-04-07T03:59:39;12.83;;;11.33;;
10894;SDS011;5500;49.886;8.074;2023-04-07T04:02:07;13.07;;;11.70;;
10894;SDS011;5500;49.886;8.074;2023-04-07T04:04:36;12.70;;;11.40;;
10894;SDS011;5500;49.886;8.074;2023-04-07T04:07:03;12.73;;;11.40;;
10894;SDS011;5500;49.886;8.074;2023-04-07T04:09:31;13.23;;;11.83;;
10894;SDS011;5500;49.886;8.074;2023-04-07T04:11:59;14.80;;;13.07;;
10894;SDS011;5500;49.886;8.074;2023-04-07T04:14:26;15.43;;;13.17;;
10894;SDS011;5500;49.886;8.074;2023-04-07T04:16:54;15.90;;;13.70;;
10894;SDS011;5500;49.886;8.074;2023-04-07T04:19:21;15.97;;;14.37;;
10894;SDS011;5500;49.886;8.074;2023-04-07T04:21:50;16.87;;;14.17;;
10894;SDS011;5500;49.886;8.074;2023-04-07T04:24:18;16.60;;;14.80;;
10894;SDS011;5500;49.886;8.074;2023-04-07T04:26:46;18.17;;;15.57;;
10894;SDS011;5500;49.886;8.074;2023-04-07T04:29:13;17.90;;;16.00;;
10894;SDS011;5500;49.886;8.074;2023-04-07T04:31:41;20.33;;;15.57;;
10894;SDS011;5500;49.886;8.074;2023-04-07T04:34:09;17.70;;;15.13;;
10894;SDS011;5500;49.886;8.074;2023-04-07T04:36:37;16.97;;;14.47;;
10894;SDS011;5500;49.886;8.074;2023-04-07T04:39:07;17.80;;;15.67;;
10894;SDS011;5500;49.886;8.074;2023-04-07T04:41:34;16.47;;;14.27;;
10894;SDS011;5500;49.886;8.074;2023-04-07T04:44:02;15.67;;;14.03;;
10894;SDS011;5500;49.886;8.074;2023-04-07T04:46:30;15.77;;;14.03;;
10894;SDS011;5500;49.886;8.074;2023-04-07T04:48:58;16.43;;;14.53;;
10894;SDS011;5500;49.886;8.074;2023-04-07T04:51:25;16.33;;;14.53;;
10894;SDS011;5500;49.886;8.074;2023-04-07T04:53:53;16.33;;;14.40;;
10894;SDS011;5500;49.886;8.074;2023-04-07T04:56:22;14.77;;;13.13;;
10894;SDS011;5500;49.886;8.074;2023-04-07T04:58:49;16.30;;;14.60;;
10894;SDS011;5500;49.886;8.074;2023-04-07T05:01:17;16.83;;;14.20;;
10894;SDS011;5500;49.886;8.074;2023-04-07T05:03:45;16.37;;;14.60;;
10894;SDS011;5500;49.886;8.074;2023-04-07T05:06:12;16.20;;;14.23;;
10894;SDS011;5500;49.886;8.074;2023-04-07T05:08:40;16.83;;;15.03;;
10894;SDS011;5500;49.886;8.074;2023-04-07T05:11:08;16.13;;;14.43;;
10894;SDS011;5500;49.886;8.074;2023-04-07T05:13:37;15.63;;;13.67;;
10894;SDS011;5500;49.886;8.074;2023-04-07T05:16:05;16.00;;;12.37;;
10894;SDS011;5500;49.886;8.074;2023-04-07T05:18:33;13.90;;;12.50;;
10894;SDS011;5500;49.886;8.074;2023-04-07T05:21:00;13.37;;;12.03;;
10894;SDS011;5500;49.886;8.074;2023-04-07T05:23:28;17.33;;;13.20;;
10894;SDS011;5500;49.886;8.074;2023-04-07T05:25:56;14.93;;;13.17;;
10894;SDS011;5500;49.886;8.074;2023-04-07T05:28:23;17.80;;;15.07;;
10894;SDS011;5500;49.886;8.074;2023-04-07T05:30:52;16.50;;;14.53;;
10894;SDS011;5500;49.886;8.074;2023-04-07T05:33:20;15.93;;;14.33;;
10894;SDS011;5500;49.886;8.074;2023-04-07T05:35:48;16.70;;;15.00;;
10894;SDS011;5500;49.886;8.074;2023-04-07T05:38:15;18.97;;;15.90;;
10894;SDS011;5500;49.886;8.074;2023-04-07T05:40:43;16.83;;;14.63;;
10894;SDS011;5500;49.886;8.074;2023-04-07T05:43:12;17.97;;;15.77;;
10894;SDS011;5500;49.886;8.074;2023-04-07T05:45:39;18.43;;;15.70;;
10894;SDS011;5500;49.886;8.074;2023-04-07T05:48:08;16.77;;;14.93;;
10894;SDS011;5500;49.886;8.074;2023-04-07T05:50:36;18.13;;;15.03;;
10894;SDS011;5500;49.886;8.074;2023-04-07T05:53:03;16.43;;;14.57;;
10894;SDS011;5500;49.886;8.074;2023-04-07T05:55:31;14.57;;;13.07;;
10894;SDS011;5500;49.886;8.074;2023-04-07T05:57:59;16.63;;;13.80;;
10894;SDS011;5500;49.886;8.074;2023-04-07T06:00:27;16.53;;;13.57;;
10894;SDS011;5500;49.886;8.074;2023-04-07T06:02:54;19.23;;;15.40;;
10894;SDS011;5500;49.886;8.074;2023-04-07T06:05:24;18.23;;;16.30;;
10894;SDS011;5500;49.886;8.074;2023-04-07T06:07:52;17.17;;;15.40;;
10894;SDS011;5500;49.886;8.074;2023-04-07T06:10:19;18.60;;;16.33;;
10894;SDS011;5500;49.886;8.074;2023-04-07T06:12:47;17.33;;;15.33;;
10894;SDS011;5500;49.886;8.074;2023-04-07T06:15:15;20.47;;;15.43;;
10894;SDS011;5500;49.886;8.074;2023-04-07T06:17:43;18.17;;;15.17;;
10894;SDS011;5500;49.886;8.074;2023-04-07T06:20:11;17.00;;;15.20;;
10894;SDS011;5500;49.886;8.074;2023-04-07T06:22:40;17.03;;;15.23;;
10894;SDS011;5500;49.886;8.074;2023-04-07T06:25:08;18.07;;;14.30;;
10894;SDS011;5500;49.886;8.074;2023-04-07T06:27:36;16.20;;;14.50;;
10894;SDS011;5500;49.886;8.074;2023-04-07T06:30:04;16.87;;;15.07;;
10894;SDS011;5500;49.886;8.074;2023-04-07T06:32:33;17.63;;;15.67;;
10894;SDS011;5500;49.886;8.074;2023-04-07T06:35:00;17.87;;;14.93;;
10894;SDS011;5500;49.886;8.074;2023-04-07T06:37:28;19.43;;;15.50;;
10894;SDS011;5500;49.886;8.074;2023-04-07T06:39:57;17.07;;;15.37;;
10894;SDS011;5500;49.886;8.074;2023-04-07T06:42:25;16.93;;;15.13;;
10894;SDS011;5500;49.886;8.074;2023-04-07T06:44:53;14.53;;;12.90;;
10894;SDS011;5500;49.886;8.074;2023-04-07T06:47:20;13.00;;;11.63;;
10894;SDS011;5500;49.886;8.074;2023-04-07T06:49:48;12.77;;;11.37;;
10894;SDS011;5500;49.886;8.074;2023-04-07T06:52:16;11.10;;;10.07;;
10894;SDS011;5500;49.886;8.074;2023-04-07T06:54:44;11.73;;;10.57;;
10894;SDS011;5500;49.886;8.074;2023-04-07T06:57:13;11.83;;;10.60;;
10894;SDS011;5500;49.886;8.074;2023-04-07T06:59:40;14.23;;;11.90;;
10894;SDS011;5500;49.886;8.074;2023-04-07T07:02:08;12.47;;;11.20;;
10894;SDS011;5500;49.886;8.074;2023-04-07T07:04:36;11.07;;;9.97;;
10894;SDS011;5500;49.886;8.074;2023-04-07T07:07:04;13.17;;;11.33;;
10894;SDS011;5500;49.886;8.074;2023-04-07T07:09:31;11.57;;;10.23;;
10894;SDS011;5500;49.886;8.074;2023-04-07T07:11:59;12.77;;;11.13;;
10894;SDS011;5500;49.886;8.074;2023-04-07T07:14:30;13.90;;;11.10;;
10894;SDS011;5500;49.886;8.074;2023-04-07T07:16:58;12.70;;;11.50;;
10894;SDS011;5500;49.886;8.074;2023-04-07T07:19:26;12.80;;;11.33;;
10894;SDS011;5500;49.886;8.074;2023-04-07T07:21:54;11.90;;;10.60;;
10894;SDS011;5500;49.886;8.074;2023-04-07T07:24:22;15.10;;;11.67;;
10894;SDS011;5500;49.886;8.074;2023-04-07T07:26:49;11.47;;;10.27;;
10894;SDS011;5500;49.886;8.074;2023-04-07T07:29:17;15.07;;;11.63;;
10894;SDS011;5500;49.886;8.074;2023-04-07T07:31:48;11.27;;;9.90;;
10894;SDS011;5500;49.886;8.074;2023-04-07T07:34:16;12.20;;;10.67;;
10894;SDS011;5500;49.886;8.074;2023-04-07T07:36:45;11.33;;;10.10;;
10894;SDS011;5500;49.886;8.074;2023-04-07T07:39:12;10.57;;;9.43;;
10894;SDS011;5500;49.886;8.074;2023-04-07T07:41:40;10.20;;;9.03;;
10894;SDS011;5500;49.886;8.074;2023-04-07T07:44:08;9.87;;;8.87;;
10894;SDS011;5500;49.886;8.074;2023-04-07T07:46:36;10.27;;;9.13;;
10894;SDS011;5500;49.886;8.074;2023-04-07T07:49:05;9.20;;;8.23;;
10894;SDS011;5500;49.886;8.074;2023-04-07T07:51:33;12.17;;;9.40;;
10894;SDS011;5500;49.886;8.074;2023-04-07T07:54:01;9.63;;;8.63;;
10894;SDS011;5500;49.886;8.074;2023-04-07T07:56:30;9.97;;;8.77;;
10894;SDS011;5500;49.886;8.074;2023-04-07T07:58:59;12.77;;;9.67;;
10894;SDS011;5500;49.886;8.074;2023-04-07T08:01:27;10.60;;;9.47;;
10894;SDS011;5500;49.886;8.074;2023-04-07T08:03:55;12.90;;;9.90;;
10894;SDS011;5500;49.886;8.074;2023-04-07T08:06:24;10.10;;;9.07;;
10894;SDS011;5500;49.886;8.074;2023-04-07T08:08:54;11.03;;;9.87;;
10894;SDS011;5500;49.886;8.074;2023-04-07T08:11:22;10.33;;;9.30;;
10894;SDS011;5500;49.886;8.074;2023-04-07T08:13:50;12.83;;;10.07;;
10894;SDS011;5500;49.886;8.074;2023-04-07T08:16:19;10.03;;;9.03;;
10894;SDS011;5500;49.886;8.074;2023-04-07T08:18:48;9.43;;;8.40;;
10894;SDS011;5500;49.886;8.074;2023-04-07T08:21:17;9.95;;;8.70;;
10894;SDS011;5500;49.886;8.074;2023-04-07T08:23:46;9.90;;;8.90;;
10894;SDS011;5500;49.886;8.074;2023-04-07T08:26:14;11.67;;;9.30;;
10894;SDS011;5500;49.886;8.074;2023-04-07T08:28:42;9.43;;;8.43;;
10894;SDS011;5500;49.886;8.074;2023-04-07T08:31:10;9.40;;;7.97;;
10894;SDS011;5500;49.886;8.074;2023-04-07T08:33:37;9.13;;;8.17;;
10894;SDS011;5500;49.886;8.074;2023-04-07T08:36:05;8.63;;;7.60;;
10894;SDS011;5500;49.886;8.074;2023-04-07T08:38:33;8.90;;;8.00;;
10894;SDS011;5500;49.886;8.074;2023-04-07T08:41:03;8.33;;;7.63;;
10894;SDS011;5500;49.886;8.074;2023-04-07T08:43:33;7.17;;;6.47;;
10894;SDS011;5500;49.886;8.074;2023-04-07T08:46:02;6.10;;;5.60;;
10894;SDS011;5500;49.886;8.074;2023-04-07T08:48:30;7.07;;;6.37;;
10894;SDS011;5500;49.886;8.074;2023-04-07T08:51:02;5.83;;;5.30;;
10894;SDS011;5500;49.886;8.074;2023-04-07T08:53:32;6.40;;;5.80;;
10894;SDS011;5500;49.886;8.074;2023-04-07T08:56:04;5.27;;;4.77;;
10894;SDS011;5500;49.886;8.074;2023-04-07T08:58:32;8.37;;;5.40;;
10894;SDS011;5500;49.886;8.074;2023-04-07T09:01:02;6.30;;;5.07;;
10894;SDS011;5500;49.886;8.074;2023-04-07T09:03:31;6.03;;;5.53;;
10894;SDS011;5500;49.886;8.074;2023-04-07T09:06:00;6.60;;;5.90;;
10894;SDS011;5500;49.886;8.074;2023-04-07T09:08:28;7.07;;;5.63;;
10894;SDS011;5500;49.886;8.074;2023-04-07T09:10:59;5.67;;;5.07;;
10894;SDS011;5500;49.886;8.074;2023-04-07T09:13:28;5.70;;;5.00;;
10894;SDS011;5500;49.886;8.074;2023-04-07T09:15:57;4.93;;;4.53;;
10894;SDS011;5500;49.886;8.074;2023-04-07T09:18:26;6.10;;;4.20;;
10894;SDS011;5500;49.886;8.074;2023-04-07T09:20:55;5.10;;;4.50;;
10894;SDS011;5500;49.886;8.074;2023-04-07T09:23:27;5.47;;;4.97;;
10894;SDS011;5500;49.886;8.074;2023-04-07T09:25:55;6.60;;;5.20;;
10894;SDS011;5500;49.886;8.074;2023-04-07T09:28:25;5.70;;;5.20;;
10894;SDS011;5500;49.886;8.074;2023-04-07T09:31:06;6.63;;;5.53;;
10894;SDS011;5500;49.886;8.074;2023-04-07T09:33:34;7.17;;;6.00;;
10894;SDS011;5500;49.886;8.074;2023-04-07T09:36:02;8.27;;;5.97;;
10894;SDS011;5500;49.886;8.074;2023-04-07T09:38:33;6.73;;;6.13;;
10894;SDS011;5500;49.886;8.074;2023-04-07T09:41:04;6.80;;;6.13;;
10894;SDS011;5500;49.886;8.074;2023-04-07T09:43:34;7.30;;;6.57;;
10894;SDS011;5500;49.886;8.074;2023-04-07T09:46:07;15.60;;;6.27;;
10894;SDS011;5500;49.886;8.074;2023-04-07T09:48:39;7.20;;;6.50;;
10894;SDS011;5500;49.886;8.074;2023-04-07T09:51:08;8.10;;;7.20;;
10894;SDS011;5500;49.886;8.074;2023-04-07T09:53:43;8.20;;;6.80;;
10894;SDS011;5500;49.886;8.074;2023-04-07T09:56:13;7.13;;;6.43;;
10894;SDS011;5500;49.886;8.074;2023-04-07T09:58:43;6.80;;;6.20;;
10894;SDS011;5500;49.886;8.074;2023-04-07T10:01:13;7.77;;;7.07;;
10894;SDS011;5500;49.886;8.074;2023-04-07T10:03:43;7.43;;;6.73;;
10894;SDS011;5500;49.886;8.074;2023-04-07T10:06:12;7.07;;;6.30;;
10894;SDS011;5500;49.886;8.074;2023-04-07T10:08:42;7.03;;;6.33;;
10894;SDS011;5500;49.886;8.074;2023-04-07T10:11:09;8.50;;;6.30;;
10894;SDS011;5500;49.886;8.074;2023-04-07T10:13:38;7.10;;;6.40;;
10894;SDS011;5500;49.886;8.074;2023-04-07T10:16:06;8.50;;;6.50;;
10894;SDS011;5500;49.886;8.074;2023-04-07T10:18:35;6.77;;;6.00;;
10894;SDS011;5500;49.886;8.074;2023-04-07T10:21:05;6.73;;;5.97;;
10894;SDS011;5500;49.886;8.074;2023-04-07T10:23:42;6.00;;;5.30;;
10894;SDS011;5500;49.886;8.074;2023-04-07T10:26:15;6.53;;;5.93;;
10894;SDS011;5500;49.886;8.074;2023-04-07T10:28:45;5.97;;;5.20;;
10894;SDS011;5500;49.886;8.074;2023-04-07T10:31:15;5.13;;;4.47;;
10894;SDS011;5500;49.886;8.074;2023-04-07T10:33:46;5.77;;;4.83;;
10894;SDS011;5500;49.886;8.074;2023-04-07T10:36:15;6.80;;;6.10;;
10894;SDS011;5500;49.886;8.074;2023-04-07T10:41:45;5.43;;;4.93;;
10894;SDS011;5500;49.886;8.074;2023-04-07T10:47:15;5.23;;;4.73;;
10894;SDS011;5500;49.886;8.074;2023-04-07T10:52:43;6.10;;;5.50;;
10894;SDS011;5500;49.886;8.074;2023-04-07T10:58:17;6.43;;;5.53;;
10894;SDS011;5500;49.886;8.074;2023-04-07T11:03:52;6.37;;;5.77;;
10894;SDS011;5500;49.886;8.074;2023-04-07T11:06:26;5.87;;;5.37;;
10894;SDS011;5500;49.886;8.074;2023-04-07T11:08:53;7.47;;;6.60;;
10894;SDS011;5500;49.886;8.074;2023-04-07T11:11:34;7.40;;;5.60;;
10894;SDS011;5500;49.886;8.074;2023-04-07T11:14:07;6.40;;;5.80;;
10894;SDS011;5500;49.886;8.074;2023-04-07T11:16:35;6.87;;;5.60;;
10894;SDS011;5500;49.886;8.074;2023-04-07T11:19:04;6.57;;;5.83;;
10894;SDS011;5500;49.886;8.074;2023-04-07T11:21:33;6.20;;;5.23;;
10894;SDS011;5500;49.886;8.074;2023-04-07T11:24:02;6.03;;;5.43;;
10894;SDS011;5500;49.886;8.074;2023-04-07T11:26:34;5.90;;;5.30;;
10894;SDS011;5500;49.886;8.074;2023-04-07T11:29:04;5.60;;;5.03;;
10894;SDS011;5500;49.886;8.074;2023-04-07T11:31:32;5.70;;;5.03;;
10894;SDS011;5500;49.886;8.074;2023-04-07T11:34:00;5.27;;;4.77;;
10894;SDS011;5500;49.886;8.074;2023-04-07T11:36:30;6.40;;;4.83;;
10894;SDS011;5500;49.886;8.074;2023-04-07T11:39:00;5.30;;;4.80;;
10894;SDS011;5500;49.886;8.074;2023-04-07T11:41:29;5.00;;;4.23;;
10894;SDS011;5500;49.886;8.074;2023-04-07T11:44:04;6.13;;;5.53;;
10894;SDS011;5500;49.886;8.074;2023-04-07T11:46:33;6.30;;;5.30;;
10894;SDS011;5500;49.886;8.074;2023-04-07T11:49:09;5.33;;;4.83;;
10894;SDS011;5500;49.886;8.074;2023-04-07T11:51:37;6.40;;;5.63;;
10894;SDS011;5500;49.886;8.074;2023-04-07T11:54:06;5.13;;;4.60;;
10894;SDS011;5500;49.886;8.074;2023-04-07T11:56:40;6.20;;;4.40;;
10894;SDS011;5500;49.886;8.074;2023-04-07T11:59:16;4.83;;;4.43;;
10894;SDS011;5500;49.886;8.074;2023-04-07T12:01:45;4.67;;;4.27;;
10894;SDS011;5500;49.886;8.074;2023-04-07T12:04:13;4.97;;;4.47;;
10894;SDS011;5500;49.886;8.074;2023-04-07T12:06:42;5.33;;;4.60;;
10894;SDS011;5500;49.886;8.074;2023-04-07T12:09:25;4.63;;;4.07;;
10894;SDS011;5500;49.886;8.074;2023-04-07T12:11:54;4.90;;;4.43;;
10894;SDS011;5500;49.886;8.074;2023-04-07T12:14:23;6.67;;;4.77;;
10894;SDS011;5500;49.886;8.074;2023-04-07T12:16:51;6.30;;;5.00;;
10894;SDS011;5500;49.886;8.074;2023-04-07T12:19:22;4.87;;;4.37;;
10894;SDS011;5500;49.886;8.074;2023-04-07T12:21:50;5.10;;;4.60;;
10894;SDS011;5500;49.886;8.074;2023-04-07T12:24:17;4.40;;;4.00;;
10894;SDS011;5500;49.886;8.074;2023-04-07T12:26:46;5.33;;;4.77;;
10894;SDS011;5500;49.886;8.074;2023-04-07T12:29:15;9.27;;;4.97;;
10894;SDS011;5500;49.886;8.074;2023-04-07T12:31:45;5.47;;;4.73;;
10894;SDS011;5500;49.886;8.074;2023-04-07T12:34:16;5.33;;;4.83;;
10894;SDS011;5500;49.886;8.074;2023-04-07T12:36:43;6.47;;;5.30;;
10894;SDS011;5500;49.886;8.074;2023-04-07T12:39:11;6.03;;;4.93;;
10894;SDS011;5500;49.886;8.074;2023-04-07T12:41:39;5.70;;;5.10;;
10894;SDS011;5500;49.886;8.074;2023-04-07T12:44:08;5.27;;;4.77;;
10894;SDS011;5500;49.886;8.074;2023-04-07T12:46:36;6.30;;;4.47;;
10894;SDS011;5500;49.886;8.074;2023-04-07T12:49:03;4.67;;;4.17;;
10894;SDS011;5500;49.886;8.074;2023-04-07T12:51:31;5.30;;;4.50;;
10894;SDS011;5500;49.886;8.074;2023-04-07T12:53:59;5.93;;;5.00;;
10894;SDS011;5500;49.886;8.074;2023-04-07T12:56:27;5.10;;;4.60;;
10894;SDS011;5500;49.886;8.074;2023-04-07T12:58:55;5.43;;;4.33;;
10894;SDS011;5500;49.886;8.074;2023-04-07T13:01:24;4.43;;;4.03;;
10894;SDS011;5500;49.886;8.074;2023-04-07T13:03:52;4.70;;;4.30;;
10894;SDS011;5500;49.886;8.074;2023-04-07T13:06:21;4.53;;;3.73;;
10894;SDS011;5500;49.886;8.074;2023-04-07T13:08:52;4.63;;;4.10;;
10894;SDS011;5500;49.886;8.074;2023-04-07T13:11:19;6.30;;;4.70;;
10894;SDS011;5500;49.886;8.074;2023-04-07T13:13:47;4.97;;;4.53;;
10894;SDS011;5500;49.886;8.074;2023-04-07T13:16:15;4.90;;;4.40;;
10894;SDS011;5500;49.886;8.074;2023-04-07T13:18:44;4.90;;;4.37;;
10894;SDS011;5500;49.886;8.074;2023-04-07T13:21:12;6.57;;;4.43;;
10894;SDS011;5500;49.886;8.074;2023-04-07T13:23:42;3.87;;;3.43;;
10894;SDS011;5500;49.886;8.074;2023-04-07T13:26:10;4.10;;;3.70;;
10894;SDS011;5500;49.886;8.074;2023-04-07T13:28:38;3.77;;;3.43;;
10894;SDS011;5500;49.886;8.074;2023-04-07T13:31:05;4.70;;;3.47;;
10894;SDS011;5500;49.886;8.074;2023-04-07T13:33:36;5.20;;;3.50;;
10894;SDS011;5500;49.886;8.074;2023-04-07T13:36:05;4.63;;;3.50;;
10894;SDS011;5500;49.886;8.074;2023-04-07T13:38:34;4.67;;;3.80;;
10894;SDS011;5500;49.886;8.074;2023-04-07T13:41:01;4.97;;;3.60;;
10894;SDS011;5500;49.886;8.074;2023-04-07T13:43:30;5.03;;;3.67;;
10894;SDS011;5500;49.886;8.074;2023-04-07T13:45:58;5.00;;;3.33;;
10894;SDS011;5500;49.886;8.074;2023-04-07T13:48:26;4.40;;;3.77;;
10894;SDS011;5500;49.886;8.074;2023-04-07T13:50:54;4.33;;;3.80;;
10894;SDS011;5500;49.886;8.074;2023-04-07T13:53:24;5.10;;;3.83;;
10894;SDS011;5500;49.886;8.074;2023-04-07T13:55:51;4.93;;;3.70;;
10894;SDS011;5500;49.886;8.074;2023-04-07T13:58:19;5.23;;;3.67;;
10894;SDS011;5500;49.886;8.074;2023-04-07T14:00:47;4.97;;;3.73;;
10894;SDS011;5500;49.886;8.074;2023-04-07T14:03:15;4.47;;;3.43;;
10894;SDS011;5500;49.886;8.074;2023-04-07T14:05:43;4.73;;;3.93;;
10894;SDS011;5500;49.886;8.074;2023-04-07T14:08:10;4.27;;;3.80;;
10894;SDS011;5500;49.886;8.074;2023-04-07T14:10:39;5.30;;;3.80;;
10894;SDS011;5500;49.886;8.074;2023-04-07T14:13:07;5.50;;;3.97;;
10894;SDS011;5500;49.886;8.074;2023-04-07T14:15:35;5.20;;;4.47;;
10894;SDS011;5500;49.886;8.074;2023-04-07T14:18:03;5.27;;;3.60;;
10894;SDS011;5500;49.886;8.074;2023-04-07T14:20:31;5.63;;;3.77;;
10894;SDS011;5500;49.886;8.074;2023-04-07T14:22:59;4.90;;;4.37;;
10894;SDS011;5500;49.886;8.074;2023-04-07T14:25:27;5.33;;;4.17;;
10894;SDS011;5500;49.886;8.074;2023-04-07T14:27:56;4.93;;;4.27;;
10894;SDS011;5500;49.886;8.074;2023-04-07T14:30:24;4.50;;;4.10;;
10894;SDS011;5500;49.886;8.074;2023-04-07T14:32:51;5.37;;;4.60;;
10894;SDS011;5500;49.886;8.074;2023-04-07T14:35:19;4.40;;;4.00;;
10894;SDS011;5500;49.886;8.074;2023-04-07T14:37:47;5.83;;;4.23;;
10894;SDS011;5500;49.886;8.074;2023-04-07T14:40:15;4.50;;;4.10;;
10894;SDS011;5500;49.886;8.074;2023-04-07T14:42:42;5.50;;;4.17;;
10894;SDS011;5500;49.886;8.074;2023-04-07T14:45:11;4.37;;;3.90;;
10894;SDS011;5500;49.886;8.074;2023-04-07T14:47:39;4.67;;;4.17;;
10894;SDS011;5500;49.886;8.074;2023-04-07T14:50:07;4.73;;;4.10;;
10894;SDS011;5500;49.886;8.074;2023-04-07T14:52:35;5.10;;;4.10;;
10894;SDS011;5500;49.886;8.074;2023-04-07T14:55:03;4.90;;;3.87;;
10894;SDS011;5500;49.886;8.074;2023-04-07T14:57:31;4.50;;;3.60;;
10894;SDS011;5500;49.886;8.074;2023-04-07T14:59:58;4.73;;;4.20;;
10894;SDS011;5500;49.886;8.074;2023-04-07T15:02:28;4.53;;;3.63;;
10894;SDS011;5500;49.886;8.074;2023-04-07T15:04:58;4.27;;;3.77;;
10894;SDS011;5500;49.886;8.074;2023-04-07T15:07:25;3.80;;;3.50;;
10894;SDS011;5500;49.886;8.074;2023-04-07T15:09:53;6.03;;;3.63;;
10894;SDS011;5500;49.886;8.074;2023-04-07T15:12:22;5.03;;;3.67;;
10894;SDS011;5500;49.886;8.074;2023-04-07T15:14:49;3.90;;;3.47;;